Portada
METAR-TAF:

METAR-TAF

Aeroports :

Zagreb, Croàcia

latitud: 45-44N, longitud: 016-04E, altitud: 106 m

Observació

L'informe es va fer fa 16 minuts, a les 12:00 UTC
Vent 4 kt amb direcció variable
Temperatura 21°C
Humitat 18%
Pressió 1022 hPa
Visibilitat 10 km o més
sense núvols per sota de 1500 mi sense presència de cumulonimbus.

METAR: LDZA 091200Z VRB04KT CAVOK 21/M04 Q1022 NOSIG

Hora: 14:16 (12:16 UTC)

Pronòstic

L'informe es va fer fa 51 minuts, a les 11:25 UTC
Pronòstic vàlid del 09 a les 12 UTC al 10 a les 12 UTC
Vent 2 kt amb direcció variable
Visibilitat 10 km o més
sense núvols per sota de 1500 mi sense presència de cumulonimbus.

TAF: LDZA 091125Z 0912/1012 VRB02KT CAVOK TX23/0913Z TN03/1005Z

Observacions i pronòstics meteorològics de més de 4000 aeroports (METAR i TAF).

Les estacions disponibles són els punts grocs i vermells al mapa.

Posi el ratolí al punt desitjat per veure el nom de l'estació.

Feu clic per veure les observacions i els pronòstics meteorològics.

Per canviar el mapa: feu clic els botons verds amb una creu de color negre per apropar; al botó verd amb un guió per allunyar la imatge; o en les fletxes verdes per a mapes adjacents.


METAR-TAF: